createdAt,value
2022-11-14T06:50:09.162Z,6.75
2022-11-14T06:53:11.114Z,7.40
2022-11-14T06:56:15.080Z,6.30
2022-11-14T06:59:17.271Z,7.25
2022-11-14T07:02:21.838Z,7.70
2022-11-14T07:05:24.246Z,8.50
2022-11-14T07:08:26.678Z,8.10
2022-11-14T07:11:30.578Z,7.80
2022-11-14T07:14:32.649Z,7.65
2022-11-14T07:17:36.789Z,8.50
2022-11-14T07:20:38.773Z,8.30
2022-11-14T07:23:41.719Z,9.07
2022-11-14T07:26:43.523Z,8.35
2022-11-14T07:29:46.279Z,8.75
2022-11-14T07:32:55.273Z,9.98
2022-11-14T07:35:56.975Z,8.90
2022-11-14T07:38:58.912Z,8.82
2022-11-14T07:42:01.602Z,9.82
2022-11-14T07:45:03.694Z,10.30
2022-11-14T07:48:05.661Z,10.48
2022-11-14T07:51:11.171Z,11.63
2022-11-14T07:54:13.256Z,10.65
2022-11-14T07:57:15.101Z,11.40
2022-11-14T08:00:17.114Z,11.52
2022-11-14T08:03:19.326Z,10.73
2022-11-14T08:06:21.123Z,11.27
2022-11-14T08:09:23.336Z,11.52
2022-11-14T08:12:25.060Z,11.20
2022-11-14T08:15:27.364Z,11.50
2022-11-14T08:18:35.265Z,10.30
2022-11-14T08:21:37.361Z,10.90
2022-11-14T08:24:39.120Z,10.48
2022-11-14T08:27:41.021Z,9.63
2022-11-14T08:30:42.740Z,8.77
2022-11-14T08:33:45.043Z,8.80
2022-11-14T08:36:46.766Z,8.68
2022-11-14T08:39:48.521Z,8.32
2022-11-14T08:42:50.553Z,8.00
2022-11-14T08:45:52.647Z,7.55
2022-11-14T08:48:54.559Z,7.85
2022-11-14T08:51:56.730Z,7.18
2022-11-14T08:55:01.021Z,7.07
2022-11-14T08:58:03.165Z,6.60
2022-11-14T09:01:08.034Z,6.00
2022-11-14T09:07:27.048Z,5.95
2022-11-14T09:10:29.836Z,5.78
2022-11-14T09:13:34.770Z,5.70
2022-11-14T09:16:37.591Z,5.50
2022-11-14T09:19:40.577Z,6.07
2022-11-14T09:22:42.990Z,6.18
2022-11-14T09:25:45.426Z,5.75
2022-11-14T09:28:48.578Z,5.68
2022-11-14T09:31:52.193Z,6.40
2022-11-14T09:34:54.292Z,6.47
2022-11-14T09:38:03.932Z,6.40
2022-11-14T09:41:09.389Z,6.05
2022-11-14T09:44:40.973Z,5.43
2022-11-14T09:47:49.949Z,5.32
2022-11-14T09:51:08.208Z,5.50
2022-11-14T09:54:25.262Z,4.50
2022-11-14T09:57:27.899Z,4.70
2022-11-14T10:00:57.537Z,4.88
2022-11-14T10:04:24.234Z,4.18
2022-11-14T10:07:59.328Z,3.72
2022-11-14T10:11:10.256Z,4.10
2022-11-14T10:14:52.052Z,3.55
2022-11-14T10:18:19.084Z,3.50
2022-11-14T10:21:46.602Z,3.22
2022-11-14T10:25:14.353Z,3.40
2022-11-14T10:28:33.347Z,3.75
2022-11-14T10:32:05.100Z,3.22
2022-11-14T10:35:35.848Z,3.10
2022-11-14T10:38:50.294Z,3.08
2022-11-14T10:42:00.928Z,3.22
2022-11-14T10:45:16.916Z,3.30
2022-11-14T10:48:27.339Z,2.97
2022-11-14T10:51:41.069Z,2.80
2022-11-14T10:55:03.273Z,2.45
2022-11-14T10:58:11.009Z,2.50
2022-11-14T11:01:37.610Z,2.53
2022-11-14T11:04:42.774Z,2.25
2022-11-14T11:08:42.175Z,2.70
2022-11-14T11:11:31.008Z,2.72
2022-11-14T11:14:33.808Z,2.28
2022-11-14T11:17:41.719Z,2.25
2022-11-14T11:20:44.883Z,1.80
2022-11-14T11:23:50.825Z,2.00
2022-11-14T11:27:22.840Z,1.73
2022-11-14T11:30:24.707Z,1.90
2022-11-14T11:33:30.602Z,1.85
2022-11-14T11:36:42.946Z,1.73
2022-11-14T11:39:55.754Z,2.05
2022-11-14T11:46:50.414Z,2.00
2022-11-14T11:49:54.788Z,1.67
2022-11-14T11:53:12.566Z,1.58
2022-11-14T11:56:21.229Z,1.90
2022-11-14T11:59:45.490Z,1.80
2022-11-14T12:02:50.469Z,1.27
2022-11-14T12:09:07.809Z,2.08
2022-11-14T12:12:45.849Z,1.73
2022-11-14T12:16:18.802Z,1.70
2022-11-14T12:19:48.271Z,2.10
2022-11-14T12:23:19.027Z,1.60
2022-11-14T12:26:48.391Z,1.58
2022-11-14T12:30:16.891Z,1.58
2022-11-14T12:33:26.984Z,1.50
2022-11-14T12:36:31.859Z,2.00
2022-11-14T12:39:33.711Z,1.60
2022-11-14T12:42:35.944Z,1.52
2022-11-14T12:45:40.946Z,1.67
2022-11-14T12:48:44.700Z,1.55
2022-11-14T12:51:47.569Z,1.80
2022-11-14T12:54:49.442Z,1.83
2022-11-14T12:58:11.057Z,1.65
2022-11-14T13:01:31.387Z,1.70
2022-11-14T13:05:04.023Z,1.75
2022-11-14T13:08:33.755Z,2.20
2022-11-14T13:12:05.547Z,1.92
2022-11-14T13:15:49.733Z,2.35
2022-11-14T13:19:31.572Z,1.75
2022-11-14T13:22:39.785Z,2.20
2022-11-14T13:25:41.476Z,1.83
2022-11-14T13:28:50.123Z,1.73
2022-11-14T13:31:52.058Z,1.80
2022-11-14T13:35:01.976Z,2.22
2022-11-14T13:38:35.701Z,2.20
2022-11-14T13:42:09.528Z,2.10
2022-11-14T13:45:51.030Z,1.92
2022-11-14T13:49:08.229Z,2.05
2022-11-14T13:52:12.920Z,2.13
2022-11-14T13:55:27.605Z,2.60
2022-11-14T13:58:45.886Z,1.77
2022-11-14T14:02:21.036Z,1.88
2022-11-14T14:06:05.770Z,1.70
2022-11-14T14:09:35.502Z,1.95
2022-11-14T14:13:02.895Z,1.58
2022-11-14T14:16:12.910Z,2.10
2022-11-14T14:19:50.643Z,1.90
2022-11-14T14:23:13.058Z,2.25
2022-11-14T14:26:32.320Z,2.60
2022-11-14T14:30:13.858Z,2.20
2022-11-14T14:33:15.983Z,2.25
2022-11-14T14:36:20.564Z,2.20
2022-11-14T14:39:25.278Z,1.95
2022-11-14T14:42:46.566Z,2.15
2022-11-14T14:45:52.851Z,2.42
2022-11-14T14:48:54.690Z,2.13
2022-11-14T14:51:58.746Z,2.20
2022-11-14T14:55:03.005Z,2.27
2022-11-14T14:58:30.103Z,2.40
2022-11-14T15:01:35.512Z,2.25
2022-11-14T15:04:40.195Z,2.25
2022-11-14T15:07:41.945Z,2.40
2022-11-14T15:10:44.418Z,2.40
2022-11-14T15:13:48.009Z,2.58
2022-11-14T15:16:50.984Z,2.85
2022-11-14T15:19:53.984Z,2.65
2022-11-14T15:23:10.938Z,2.50
2022-11-14T15:26:16.701Z,3.20
2022-11-14T15:29:22.826Z,3.50
2022-11-14T15:32:25.875Z,2.78
2022-11-14T15:35:33.695Z,2.92
2022-11-14T15:38:44.672Z,2.95
2022-11-14T15:41:46.568Z,2.88
2022-11-14T15:44:49.043Z,3.03
2022-11-14T15:48:12.561Z,3.45
2022-11-14T15:51:14.316Z,3.28
2022-11-14T15:54:32.965Z,2.92
2022-11-14T15:57:36.143Z,2.95
2022-11-14T16:00:44.628Z,3.00
2022-11-14T16:03:48.489Z,2.88
2022-11-14T16:06:50.270Z,2.90
2022-11-14T16:09:52.044Z,3.85
2022-11-14T16:12:54.434Z,3.70
2022-11-14T16:15:56.192Z,3.22
2022-11-14T16:18:57.982Z,3.67
2022-11-14T16:22:02.852Z,3.30
2022-11-14T16:25:06.298Z,3.83
2022-11-14T16:28:07.940Z,3.75
2022-11-14T16:31:14.376Z,4.05
2022-11-14T16:34:19.891Z,4.35
2022-11-14T16:37:21.727Z,4.05
2022-11-14T16:40:27.775Z,4.35
2022-11-14T16:43:29.958Z,4.00
2022-11-14T16:46:32.139Z,4.10
2022-11-14T16:49:33.809Z,4.30
2022-11-14T16:52:37.219Z,4.75
2022-11-14T16:55:43.826Z,4.10
2022-11-14T16:58:45.481Z,4.63
